Time;durP1;ratioP1;P1;durP2;ratioP2;P2;SDS_P1;SDS_P2;PMS_P1;PMS_P2;Temp;Humidity;BMP_temperature;BMP_pressure;BME280_temperature;BME280_humidity;BME280_pressure;Samples;Min_cycle;Max_cycle;Signal;HPM_P1;HPM_P2
2022/01/15 00:01:14;;;;;;;38.13;17.57;;;3.80;99.90;;;;;;4933673;28;20487;-84
2022/01/15 00:03:39;;;;;;;38.07;19.33;;;3.90;99.90;;;;;;4965329;28;20217;-85
2022/01/15 00:06:06;;;;;;;37.10;19.87;;;3.90;99.90;;;;;;4957870;28;20179;-84
2022/01/15 00:08:31;;;;;;;42.65;21.02;;;3.90;99.90;;;;;;4966635;28;20194;-84
2022/01/15 00:10:57;;;;;;;40.07;18.40;;;3.90;99.90;;;;;;4952428;28;20261;-84
2022/01/15 00:13:30;;;;;;;32.10;16.30;;;3.90;99.90;;;;;;4938037;28;20194;-85
2022/01/15 00:16:07;;;;;;;38.58;16.50;;;3.90;99.90;;;;;;4969051;28;20222;-85
2022/01/15 00:19:09;;;;;;;36.35;17.40;;;3.90;99.90;;;;;;4972929;28;20189;-84
2022/01/15 00:21:26;;;;;;;36.03;16.50;;;4.10;99.90;;;;;;4976892;28;20791;-84
2022/01/15 00:23:51;;;;;;;30.25;16.67;;;3.90;99.90;;;;;;4983640;28;20566;-84
2022/01/15 00:26:17;;;;;;;38.40;18.63;;;3.90;99.90;;;;;;4980994;28;20179;-84
2022/01/15 00:28:43;;;;;;;35.70;16.10;;;3.90;99.90;;;;;;4984872;28;20256;-84
2022/01/15 00:31:08;;;;;;;32.77;16.40;;;3.90;99.90;;;;;;4968295;28;20570;-84
2022/01/15 00:33:34;;;;;;;34.30;16.60;;;4.00;99.90;;;;;;4967974;28;20554;-85
2022/01/15 00:36:00;;;;;;;34.17;16.40;;;4.00;99.90;;;;;;4979067;28;20174;-84
2022/01/15 00:38:25;;;;;;;27.13;15.10;;;3.90;99.90;;;;;;4970294;28;20210;-84
2022/01/15 00:40:51;;;;;;;31.70;18.20;;;4.00;99.90;;;;;;4980207;28;20174;-84
2022/01/15 00:43:18;;;;;;;28.80;16.33;;;4.10;99.90;;;;;;4986455;28;20260;-85
2022/01/15 00:45:44;;;;;;;33.90;17.52;;;4.00;99.90;;;;;;4977298;28;20436;-84
2022/01/15 00:48:09;;;;;;;31.27;16.85;;;4.10;99.90;;;;;;4980999;28;20396;-84
2022/01/15 00:50:35;;;;;;;27.97;16.07;;;4.20;99.90;;;;;;4987425;28;20564;-84
2022/01/15 00:53:01;;;;;;;26.33;14.70;;;4.00;99.90;;;;;;4987212;28;20181;-84
2022/01/15 00:55:26;;;;;;;26.80;13.20;;;3.90;99.90;;;;;;4970388;28;20213;-85
2022/01/15 00:57:52;;;;;;;32.73;15.67;;;4.00;99.90;;;;;;4986521;28;20211;-84
2022/01/15 01:00:21;;;;;;;30.13;15.70;;;4.00;99.90;;;;;;4960808;28;20213;-84
2022/01/15 01:02:47;;;;;;;30.52;16.45;;;4.10;99.90;;;;;;4985650;28;20185;-85
2022/01/15 01:05:12;;;;;;;30.67;15.97;;;4.10;99.90;;;;;;4971404;28;20198;-84
2022/01/15 01:07:38;;;;;;;26.70;15.87;;;4.20;99.90;;;;;;4986505;28;20524;-84
2022/01/15 01:23:12;;;;;;;22.10;14.65;;;4.20;99.90;;;;;;4964868;28;20537;-84
2022/01/15 01:25:44;;;;;;;22.27;13.37;;;4.10;99.90;;;;;;4966419;28;20198;-84
2022/01/15 01:28:16;;;;;;;25.10;13.40;;;4.20;99.90;;;;;;4965897;28;20539;-83
2022/01/15 01:31:33;;;;;;;26.30;14.00;;;4.10;99.90;;;;;;4962537;28;20217;-83
2022/01/15 01:33:41;;;;;;;23.58;13.95;;;4.00;99.90;;;;;;4938124;28;20212;-84
2022/01/15 01:36:37;;;;;;;23.50;13.35;;;4.20;99.90;;;;;;4965085;28;20184;-84
2022/01/15 01:39:09;;;;;;;24.80;13.82;;;3.50;99.90;;;;;;4941408;28;20608;-83
2022/01/15 01:41:37;;;;;;;28.15;14.65;;;4.00;99.90;;;;;;4968740;28;20502;-84
2022/01/15 01:44:04;;;;;;;25.95;14.00;;;3.70;99.90;;;;;;4967014;28;20225;-83
2022/01/15 01:46:37;;;;;;;27.48;14.38;;;4.10;99.90;;;;;;4956726;29;20257;-83
2022/01/15 01:49:04;;;;;;;27.35;14.98;;;4.00;99.90;;;;;;4943154;28;20194;-83
2022/01/15 01:51:35;;;;;;;27.45;14.18;;;4.10;99.90;;;;;;4955947;28;20217;-83
2022/01/15 01:54:03;;;;;;;28.70;14.80;;;4.20;99.90;;;;;;4961437;28;20210;-85
2022/01/15 01:56:29;;;;;;;25.25;13.57;;;4.20;99.90;;;;;;4950107;28;20671;-84
2022/01/15 01:58:55;;;;;;;27.47;15.47;;;3.90;99.90;;;;;;4965201;28;20212;-84
2022/01/15 02:01:21;;;;;;;37.70;15.00;;;4.50;99.90;;;;;;4963869;28;20205;-84
2022/01/15 02:03:46;;;;;;;24.57;13.07;;;4.10;99.90;;;;;;4963556;28;20198;-83
2022/01/15 02:06:13;;;;;;;34.83;15.37;;;4.00;99.90;;;;;;4951739;28;20430;-84
2022/01/15 02:08:38;;;;;;;26.45;13.70;;;4.20;99.90;;;;;;4947789;28;20447;-83
2022/01/15 02:11:06;;;;;;;27.87;14.80;;;4.20;99.90;;;;;;4948217;29;20213;-83
2022/01/15 02:13:33;;;;;;;26.85;13.70;;;4.20;99.90;;;;;;4965062;28;20198;-84
2022/01/15 02:16:00;;;;;;;28.48;16.23;;;4.20;99.90;;;;;;4958434;28;20222;-83
2022/01/15 02:18:26;;;;;;;25.50;14.13;;;4.20;99.90;;;;;;4964696;28;20210;-83
2022/01/15 02:23:31;;;;;;;27.88;15.48;;;4.10;99.90;;;;;;4957254;28;20167;-83
2022/01/15 02:23:50;;;;;;;31.38;13.48;;;4.00;99.90;;;;;;4954573;28;20249;-83
2022/01/15 02:26:26;;;;;;;25.98;16.00;;;4.10;99.90;;;;;;4961242;28;20193;-83
2022/01/15 02:29:00;;;;;;;32.97;16.65;;;4.30;99.90;;;;;;4960119;28;20265;-83
2022/01/15 02:31:28;;;;;;;25.27;14.98;;;3.90;99.90;;;;;;4949017;28;20502;-83
2022/01/15 02:33:55;;;;;;;27.27;15.88;;;4.00;99.90;;;;;;4953189;28;20192;-83
2022/01/15 02:36:26;;;;;;;27.67;16.02;;;4.30;99.90;;;;;;4950169;28;20183;-83
2022/01/15 02:38:53;;;;;;;26.45;15.23;;;4.40;99.90;;;;;;4967230;28;20252;-84
2022/01/15 02:41:34;;;;;;;26.23;15.00;;;4.40;99.90;;;;;;4957364;28;20669;-84
2022/01/15 02:44:02;;;;;;;30.95;15.15;;;4.30;99.90;;;;;;4945339;28;20403;-83
2022/01/15 02:48:56;;;;;;;32.33;17.58;;;4.30;99.90;;;;;;4967974;28;20543;-84
2022/01/15 02:51:23;;;;;;;27.88;15.52;;;3.90;99.90;;;;;;4964841;28;20211;-84
2022/01/15 02:53:54;;;;;;;30.55;18.52;;;4.30;99.90;;;;;;4968294;28;20563;-83
2022/01/15 02:56:24;;;;;;;27.02;13.80;;;4.30;99.90;;;;;;4957373;28;20171;-84
2022/01/15 02:58:50;;;;;;;26.85;15.20;;;4.30;99.90;;;;;;4968333;28;20189;-84
2022/01/15 03:01:16;;;;;;;25.30;15.10;;;4.40;99.90;;;;;;4955255;28;20229;-84
2022/01/15 03:03:41;;;;;;;25.80;15.60;;;3.90;99.90;;;;;;4967440;28;20240;-84
2022/01/15 03:06:19;;;;;;;26.90;16.97;;;4.70;99.90;;;;;;4956441;28;20422;-85
2022/01/15 03:08:46;;;;;;;31.73;17.55;;;4.40;99.90;;;;;;4962913;28;20237;-85
2022/01/15 03:11:13;;;;;;;32.35;16.75;;;3.80;99.90;;;;;;4953613;28;20688;-83
2022/01/15 03:13:40;;;;;;;26.05;16.00;;;4.50;99.90;;;;;;4950023;28;20387;-84
2022/01/15 03:16:07;;;;;;;25.95;14.50;;;4.50;99.90;;;;;;4969922;28;20233;-83
2022/01/15 03:18:33;;;;;;;30.50;14.63;;;4.50;99.90;;;;;;4985813;28;20655;-83
2022/01/15 03:20:59;;;;;;;25.40;14.40;;;4.90;99.90;;;;;;4969640;28;20224;-83
2022/01/15 03:23:24;;;;;;;22.07;13.17;;;4.00;99.90;;;;;;4986577;28;20185;-83
2022/01/15 03:25:50;;;;;;;28.60;15.67;;;4.40;99.90;;;;;;4977624;28;20432;-84
2022/01/15 03:28:16;;;;;;;27.47;13.37;;;4.30;99.90;;;;;;4969401;28;20261;-84
2022/01/15 03:30:42;;;;;;;19.13;11.63;;;;;;;;;;4988370;28;20220;-83
2022/01/15 03:33:08;;;;;;;11.57;8.10;;;4.50;99.90;;;;;;4989155;28;20172;-84
2022/01/15 03:35:35;;;;;;;10.07;7.68;;;4.30;99.90;;;;;;5000525;28;20201;-83
2022/01/15 03:38:01;;;;;;;7.78;6.63;;;5.00;99.90;;;;;;4988842;28;20203;-84
2022/01/15 03:40:26;;;;;;;8.90;6.60;;;4.30;99.90;;;;;;4978766;28;20288;-84
2022/01/15 03:42:52;;;;;;;8.07;6.30;;;5.20;99.90;;;;;;4982797;28;20430;-83
2022/01/15 03:45:18;;;;;;;8.10;6.43;;;3.60;99.90;;;;;;4975551;28;20222;-84
2022/01/15 03:47:45;;;;;;;8.03;6.57;;;4.20;99.90;;;;;;4968938;28;20453;-84
2022/01/15 03:50:12;;;;;;;11.45;7.05;;;4.30;99.90;;;;;;4991770;28;20221;-85
2022/01/15 03:52:38;;;;;;;6.85;6.25;;;4.40;99.90;;;;;;4964994;28;20228;-84
2022/01/15 03:55:09;;;;;;;7.83;6.63;;;4.40;99.90;;;;;;4980827;28;20230;-83
2022/01/15 03:57:35;;;;;;;7.10;6.35;;;3.80;99.90;;;;;;4983168;28;20212;-84
2022/01/15 04:00:02;;;;;;;10.27;6.63;;;4.80;99.90;;;;;;4978793;28;20636;-82
2022/01/15 04:02:28;;;;;;;6.35;5.75;;;4.40;99.90;;;;;;4988563;28;20188;-82
2022/01/15 04:04:54;;;;;;;7.75;6.97;;;5.30;99.90;;;;;;4957227;28;20198;-83
2022/01/15 04:07:19;;;;;;;8.37;6.80;;;4.40;99.90;;;;;;4978753;28;20239;-82
2022/01/15 04:09:45;;;;;;;9.00;6.33;;;4.30;99.90;;;;;;4992397;28;20534;-82
2022/01/15 04:12:11;;;;;;;6.50;5.73;;;4.30;99.90;;;;;;4979567;28;20189;-82
2022/01/15 04:14:36;;;;;;;7.40;6.00;;;6.70;99.90;;;;;;4984074;28;20249;-82
2022/01/15 04:17:03;;;;;;;7.47;6.60;;;4.10;99.90;;;;;;4950245;28;20457;-85
2022/01/15 04:19:29;;;;;;;9.43;5.90;;;4.20;99.90;;;;;;4957718;28;20438;-82
2022/01/15 04:21:55;;;;;;;7.22;6.00;;;4.00;99.90;;;;;;4951653;28;20479;-84
2022/01/15 04:24:20;;;;;;;5.13;4.63;;;3.90;99.90;;;;;;4956977;28;20654;-84
2022/01/15 04:26:47;;;;;;;6.40;5.90;;;4.10;99.90;;;;;;4968588;28;20236;-85
2022/01/15 04:29:15;;;;;;;7.40;5.97;;;4.20;99.90;;;;;;4967182;28;20599;-82
2022/01/15 04:31:48;;;;;;;6.45;5.78;;;4.10;99.90;;;;;;4968285;28;20603;-85
2022/01/15 04:34:25;;;;;;;7.53;6.82;;;4.30;99.90;;;;;;4955293;28;20204;-84
2022/01/15 04:36:52;;;;;;;8.00;7.00;;;4.00;99.90;;;;;;4965582;28;20513;-84
2022/01/15 04:39:18;;;;;;;6.60;5.35;;;3.90;99.90;;;;;;4962507;28;20194;-85
2022/01/15 04:41:44;;;;;;;7.78;5.78;;;3.90;99.90;;;;;;4966228;28;20544;-83
2022/01/15 04:44:10;;;;;;;5.70;5.18;;;6.20;99.90;;;;;;4947239;28;20656;-85
2022/01/15 04:46:38;;;;;;;6.20;5.47;;;3.50;99.90;;;;;;4966147;28;20182;-85
2022/01/15 04:49:04;;;;;;;6.35;5.75;;;3.50;99.90;;;;;;4965305;28;20201;-83
2022/01/15 04:51:30;;;;;;;6.63;6.00;;;4.90;99.90;;;;;;4964726;28;20202;-84
2022/01/15 04:53:56;;;;;;;6.78;6.18;;;3.60;99.90;;;;;;4964896;28;20229;-85
2022/01/15 04:56:22;;;;;;;9.93;6.77;;;3.30;99.90;;;;;;4966836;28;20265;-84
2022/01/15 04:58:48;;;;;;;5.77;5.27;;;5.40;99.90;;;;;;4964066;28;20229;-85
2022/01/15 05:01:14;;;;;;;8.40;6.30;;;3.60;99.90;;;;;;4949290;28;20174;-84
2022/01/15 05:03:39;;;;;;;9.70;7.67;;;3.40;99.90;;;;;;4964687;28;20205;-84
2022/01/15 05:06:05;;;;;;;9.27;7.63;;;3.50;99.90;;;;;;4966828;28;20182;-85
2022/01/15 05:08:32;;;;;;;8.77;7.20;;;3.50;99.90;;;;;;4965187;28;20579;-85
2022/01/15 05:10:59;;;;;;;7.75;6.03;;;3.80;99.90;;;;;;4948481;28;20210;-85
2022/01/15 05:13:29;;;;;;;7.47;6.78;;;3.60;99.90;;;;;;4964650;28;20201;-84
2022/01/15 05:15:55;;;;;;;6.93;6.22;;;3.70;99.90;;;;;;4966430;28;20332;-84
2022/01/15 05:18:20;;;;;;;10.50;6.93;;;3.30;99.90;;;;;;4962694;28;20273;-84
2022/01/15 05:20:46;;;;;;;7.87;7.00;;;3.50;99.90;;;;;;4949506;28;20170;-84
2022/01/15 05:23:13;;;;;;;10.03;6.63;;;3.40;99.90;;;;;;4966529;28;20213;-84
2022/01/15 05:25:39;;;;;;;9.85;8.13;;;2.90;99.90;;;;;;4964106;28;20197;-84
2022/01/15 05:28:05;;;;;;;9.73;7.35;;;3.30;99.90;;;;;;4958864;28;20183;-85
2022/01/15 05:30:32;;;;;;;8.25;7.43;;;3.20;99.90;;;;;;4966111;28;20217;-85
2022/01/15 05:32:58;;;;;;;10.40;7.60;;;3.40;99.90;;;;;;4968252;28;20270;-85
2022/01/15 05:35:27;;;;;;;10.45;7.75;;;3.00;99.90;;;;;;4967025;28;20724;-85
2022/01/15 05:37:54;;;;;;;11.30;8.35;;;3.10;99.90;;;;;;4967452;28;20190;-85
2022/01/15 05:40:19;;;;;;;9.70;8.35;;;3.30;99.90;;;;;;4961538;28;20625;-84
2022/01/15 05:42:46;;;;;;;13.63;9.50;;;5.50;99.90;;;;;;4949788;28;20194;-85
2022/01/15 05:45:12;;;;;;;11.05;8.07;;;5.20;99.90;;;;;;4940232;28;20202;-85
2022/01/15 05:47:38;;;;;;;17.75;9.43;;;3.30;99.90;;;;;;4950766;28;20198;-82
2022/01/15 05:50:04;;;;;;;18.07;10.40;;;2.80;99.90;;;;;;4955889;28;20214;-83
2022/01/15 05:52:30;;;;;;;16.27;10.93;;;3.20;99.90;;;;;;4966051;28;20189;-83
2022/01/15 05:54:56;;;;;;;14.03;10.77;;;3.40;99.90;;;;;;4977021;28;20204;-84
2022/01/15 05:57:21;;;;;;;12.33;8.57;;;3.00;99.90;;;;;;4968074;28;20202;-84
2022/01/15 05:59:47;;;;;;;12.53;8.73;;;2.90;99.90;;;;;;4979718;28;20211;-85
2022/01/15 06:02:12;;;;;;;10.20;7.93;;;2.90;99.90;;;;;;4952262;28;20192;-81
2022/01/15 06:04:38;;;;;;;12.23;7.50;;;3.00;99.90;;;;;;4964768;28;20288;-85
2022/01/15 06:07:04;;;;;;;11.70;8.77;;;3.10;99.90;;;;;;4948041;28;20185;-83
2022/01/15 06:09:29;;;;;;;10.13;7.90;;;3.10;99.90;;;;;;4964990;28;20194;-84
2022/01/15 06:11:56;;;;;;;14.30;9.87;;;3.20;99.90;;;;;;4967675;28;20443;-84
2022/01/15 06:14:22;;;;;;;18.60;9.55;;;3.10;99.90;;;;;;4966799;28;20209;-85
2022/01/15 06:16:48;;;;;;;16.52;10.63;;;4.60;99.90;;;;;;4970743;28;20181;-83
2022/01/15 06:19:14;;;;;;;18.70;10.50;;;3.10;99.90;;;;;;4277387;28;10000752;-84
2022/01/15 06:21:39;;;;;;;15.77;8.80;;;3.20;99.90;;;;;;4967018;28;20190;-84
2022/01/15 06:24:05;;;;;;;21.47;10.90;;;3.00;99.90;;;;;;4962643;28;20197;-84
2022/01/15 06:26:31;;;;;;;20.38;11.85;;;3.20;99.90;;;;;;4965153;28;20182;-84
2022/01/15 06:28:57;;;;;;;19.53;12.17;;;3.10;99.90;;;;;;4958834;28;20193;-83
2022/01/15 06:31:23;;;;;;;22.43;12.57;;;3.20;99.90;;;;;;4954072;28;20214;-84
2022/01/15 06:33:48;;;;;;;20.57;12.17;;;2.90;99.90;;;;;;4965101;28;20437;-85
2022/01/15 06:36:14;;;;;;;20.07;11.40;;;3.00;99.90;;;;;;4953951;28;20209;-82
2022/01/15 06:38:39;;;;;;;19.07;12.67;;;3.10;99.90;;;;;;4973768;28;20244;-83
2022/01/15 06:41:11;;;;;;;20.17;12.13;;;3.10;99.90;;;;;;4963672;28;20226;-84
2022/01/15 06:43:36;;;;;;;16.35;11.07;;;3.10;99.90;;;;;;4971312;28;20316;-85
2022/01/15 06:46:02;;;;;;;20.57;10.30;;;3.30;99.90;;;;;;4968578;28;20683;-84
2022/01/15 06:48:29;;;;;;;14.33;9.17;;;2.90;99.90;;;;;;4966521;28;20538;-85
2022/01/15 06:50:55;;;;;;;18.30;10.88;;;1.90;99.90;;;;;;4943026;29;20248;-85
2022/01/15 06:53:20;;;;;;;19.47;12.07;;;5.60;99.90;;;;;;4963755;28;20616;-84
2022/01/15 06:55:49;;;;;;;16.97;11.33;;;3.40;99.90;;;;;;4952831;28;20501;-84
2022/01/15 06:58:16;;;;;;;17.20;11.23;;;2.90;99.90;;;;;;4957153;28;20258;-82
2022/01/15 07:00:42;;;;;;;17.15;11.70;;;3.10;99.90;;;;;;4957855;28;20603;-83
2022/01/15 07:03:08;;;;;;;16.52;11.15;;;3.00;99.90;;;;;;4959316;28;20269;-83
2022/01/15 07:05:33;;;;;;;15.43;10.23;;;4.70;99.90;;;;;;4951666;28;20198;-82
2022/01/15 07:07:59;;;;;;;14.97;9.87;;;1.60;99.90;;;;;;4955783;28;20194;-83
2022/01/15 07:10:25;;;;;;;15.00;9.43;;;2.70;99.90;;;;;;4979511;28;20217;-83
2022/01/15 07:12:51;;;;;;;12.30;9.43;;;3.10;99.90;;;;;;4966730;28;20285;-81
2022/01/15 07:15:17;;;;;;;16.83;10.25;;;3.10;99.90;;;;;;4966302;28;20502;-84
2022/01/15 07:17:48;;;;;;;15.63;10.05;;;2.70;99.90;;;;;;4966303;28;20196;-83
2022/01/15 07:20:15;;;;;;;18.27;9.18;;;3.60;99.90;;;;;;4960049;28;20178;-84
2022/01/15 07:22:41;;;;;;;17.67;10.88;;;3.00;99.90;;;;;;4952222;28;20222;-84
2022/01/15 07:25:08;;;;;;;20.20;13.18;;;3.50;99.90;;;;;;4953526;28;20190;-84
2022/01/15 07:27:35;;;;;;;16.60;11.43;;;3.20;99.90;;;;;;4955601;28;20195;-83
2022/01/15 07:30:02;;;;;;;23.63;11.15;;;3.20;99.90;;;;;;4957089;28;20285;-84
2022/01/15 07:32:27;;;;;;;24.02;12.23;;;3.50;99.90;;;;;;4955033;28;20615;-83
2022/01/15 07:34:53;;;;;;;21.77;12.70;;;3.20;99.90;;;;;;4957159;28;20178;-83
2022/01/15 07:37:19;;;;;;;17.90;12.43;;;3.00;99.90;;;;;;4961432;28;20194;-83
2022/01/15 07:39:44;;;;;;;23.03;12.03;;;3.10;99.90;;;;;;4964200;28;20185;-83
2022/01/15 07:42:10;;;;;;;13.77;10.60;;;4.10;99.90;;;;;;4954921;28;20487;-84
2022/01/15 07:44:36;;;;;;;14.77;9.60;;;3.10;99.90;;;;;;4958560;28;20188;-84
2022/01/15 07:47:02;;;;;;;20.17;12.40;;;3.10;99.90;;;;;;4949267;28;20765;-84
2022/01/15 07:49:28;;;;;;;17.75;11.38;;;2.80;99.90;;;;;;4958427;28;20171;-84
2022/01/15 07:51:53;;;;;;;19.07;12.93;;;2.20;99.90;;;;;;4960222;28;20240;-86
2022/01/15 07:54:19;;;;;;;17.93;12.90;;;2.90;99.90;;;;;;4961575;28;20688;-86
2022/01/15 07:56:45;;;;;;;19.80;11.83;;;2.90;99.90;;;;;;4956757;28;20277;-84
2022/01/15 07:59:11;;;;;;;16.70;12.27;;;3.30;99.90;;;;;;4956203;28;20449;-84
2022/01/15 08:01:36;;;;;;;17.67;11.97;;;3.20;99.90;;;;;;4961178;28;20477;-86
2022/01/15 08:04:03;;;;;;;20.90;13.70;;;3.00;99.90;;;;;;4955122;28;20232;-84
2022/01/15 08:06:32;;;;;;;17.27;12.90;;;3.00;99.90;;;;;;4964051;28;20703;-85
2022/01/15 08:09:17;;;;;;;17.70;12.05;;;3.40;99.90;;;;;;4962150;28;20213;-84
2022/01/15 08:11:44;;;;;;;16.70;10.77;;;3.00;99.90;;;;;;4960123;28;20224;-81
2022/01/15 08:14:19;;;;;;;16.08;10.63;;;3.10;99.90;;;;;;4961550;28;20214;-85
2022/01/15 08:16:47;;;;;;;14.18;10.57;;;5.90;99.90;;;;;;4961575;28;20186;-84
2022/01/15 08:19:13;;;;;;;18.23;9.82;;;3.60;99.90;;;;;;4945726;28;20179;-84
2022/01/15 08:21:38;;;;;;;15.57;10.40;;;2.90;99.90;;;;;;4952760;28;20549;-82
2022/01/15 08:24:04;;;;;;;13.30;9.83;;;2.80;99.90;;;;;;4958225;28;20194;-82
2022/01/15 08:26:30;;;;;;;12.67;9.73;;;3.10;99.90;;;;;;4963939;28;20201;-82
2022/01/15 08:28:56;;;;;;;15.00;9.80;;;3.10;99.90;;;;;;4956559;28;20737;-83
2022/01/15 08:31:22;;;;;;;12.60;9.70;;;2.90;99.90;;;;;;4963117;28;20215;-84
2022/01/15 08:33:47;;;;;;;14.10;10.37;;;3.30;99.90;;;;;;4961555;28;20198;-83
2022/01/15 08:36:13;;;;;;;12.43;8.80;;;3.40;99.90;;;;;;4966152;28;20201;-83
2022/01/15 08:38:39;;;;;;;14.40;10.77;;;3.00;99.90;;;;;;4965135;28;20265;-83
2022/01/15 08:41:05;;;;;;;11.80;9.00;;;;;;;;;;4964962;28;20444;-83
2022/01/15 08:43:36;;;;;;;18.48;11.20;;;3.40;99.90;;;;;;4966774;28;20193;-84
2022/01/15 08:46:02;;;;;;;14.30;10.07;;;3.80;99.90;;;;;;4964594;28;20273;-84
2022/01/15 08:48:28;;;;;;;17.13;10.20;;;3.30;99.90;;;;;;4967614;28;20185;-81
2022/01/15 08:50:53;;;;;;;17.00;11.10;;;3.50;99.90;;;;;;4968177;28;20567;-81
2022/01/15 08:53:21;;;;;;;15.63;11.33;;;3.40;99.90;;;;;;4968607;28;20199;-82
2022/01/15 08:55:48;;;;;;;16.73;11.25;;;2.70;99.90;;;;;;4965169;28;20272;-83
2022/01/15 08:58:13;;;;;;;16.90;11.07;;;3.20;99.90;;;;;;4966407;28;20193;-85
2022/01/15 09:00:40;;;;;;;13.30;9.00;;;3.10;99.90;;;;;;4949726;28;20208;-85
2022/01/15 09:03:09;;;;;;;9.38;8.48;;;3.20;99.90;;;;;;4949311;28;20285;-84
2022/01/15 09:05:36;;;;;;;11.65;8.75;;;3.20;99.90;;;;;;4968267;28;20663;-84
2022/01/15 09:08:04;;;;;;;10.77;8.40;;;4.30;99.90;;;;;;4969468;28;20204;-85
2022/01/15 09:10:30;;;;;;;15.98;11.35;;;3.30;99.90;;;;;;4965702;28;20198;-85
2022/01/15 09:12:56;;;;;;;17.48;10.15;;;3.30;99.90;;;;;;4966149;28;20253;-81
2022/01/15 09:15:22;;;;;;;10.63;8.60;;;2.90;99.90;;;;;;4966890;28;20225;-85
2022/01/15 09:17:47;;;;;;;11.70;9.82;;;3.40;99.90;;;;;;4967523;28;20543;-83
2022/01/15 09:20:13;;;;;;;8.97;7.90;;;3.50;99.90;;;;;;4983093;28;20224;-84
2022/01/15 09:22:39;;;;;;;12.43;9.55;;;3.50;99.90;;;;;;4971127;28;20197;-82
2022/01/15 09:25:05;;;;;;;11.00;8.53;;;5.10;99.90;;;;;;4973457;28;20660;-84
2022/01/15 09:30:16;;;;;;;10.35;9.07;;;4.00;99.90;;;;;;4969860;28;20364;-84
2022/01/15 09:32:45;;;;;;;11.13;8.70;;;3.50;99.90;;;;;;4966108;28;20182;-81
2022/01/15 09:35:13;;;;;;;15.97;11.60;;;3.70;99.90;;;;;;4612867;28;9999995;-83
2022/01/15 09:37:39;;;;;;;13.20;10.82;;;3.50;99.90;;;;;;4952818;28;20190;-84
2022/01/15 09:40:06;;;;;;;13.30;9.80;;;3.70;99.90;;;;;;4946821;28;20718;-85
2022/01/15 09:42:33;;;;;;;11.25;9.02;;;3.80;99.90;;;;;;4934864;29;20454;-77
2022/01/15 09:45:02;;;;;;;10.23;8.82;;;4.50;99.90;;;;;;4940865;28;20194;-84
2022/01/15 09:47:30;;;;;;;15.65;10.93;;;3.60;99.90;;;;;;4969807;28;20202;-83
2022/01/15 09:49:56;;;;;;;12.07;9.20;;;3.60;99.90;;;;;;4969257;28;20767;-82
2022/01/15 09:52:23;;;;;;;8.85;7.93;;;3.70;99.90;;;;;;4964821;28;20192;-85
2022/01/15 09:54:50;;;;;;;8.90;7.90;;;3.90;99.90;;;;;;4959131;28;20485;-82
2022/01/15 09:57:16;;;;;;;9.80;8.68;;;3.80;99.90;;;;;;4957990;28;20600;-83
2022/01/15 09:59:43;;;;;;;10.93;9.77;;;4.50;99.90;;;;;;4954094;28;20175;-84
2022/01/15 10:02:09;;;;;;;8.77;7.85;;;4.00;99.90;;;;;;4965147;28;20572;-83
2022/01/15 10:04:54;;;;;;;10.50;8.77;;;3.70;99.90;;;;;;4971939;28;20229;-81
2022/01/15 10:07:27;;;;;;;10.68;8.15;;;4.00;99.90;;;;;;4980239;28;20253;-83
2022/01/15 10:10:22;;;;;;;8.15;7.35;;;3.80;99.90;;;;;;4979162;28;20647;-83
2022/01/15 10:12:48;;;;;;;10.27;8.00;;;4.00;99.90;;;;;;4944735;28;20255;-82
2022/01/15 10:15:17;;;;;;;17.47;12.90;;;2.90;99.90;;;;;;4965585;28;20226;-82
2022/01/15 10:17:43;;;;;;;8.75;7.85;;;4.30;99.90;;;;;;5019078;23;20496;-85
2022/01/15 10:20:12;;;;;;;12.27;9.85;;;4.10;99.90;;;;;;4960416;28;20188;-83
2022/01/15 10:22:46;;;;;;;11.50;8.90;;;4.20;99.90;;;;;;4948290;28;20572;-83
2022/01/15 10:25:18;;;;;;;10.77;9.20;;;4.20;99.90;;;;;;4952669;28;20193;-82
2022/01/15 10:27:58;;;;;;;9.05;7.93;;;4.10;99.90;;;;;;4959696;28;20194;-82
2022/01/15 10:30:27;;;;;;;8.95;8.15;;;4.30;99.90;;;;;;4945006;28;20214;-86
2022/01/15 10:33:06;;;;;;;9.60;8.43;;;4.10;99.90;;;;;;4963331;28;20295;-85
2022/01/15 10:35:31;;;;;;;10.95;9.70;;;4.30;99.90;;;;;;4944518;28;20189;-85
2022/01/15 10:38:00;;;;;;;8.97;8.07;;;4.40;99.90;;;;;;4962466;28;20220;-86
2022/01/15 10:40:40;;;;;;;10.23;8.95;;;4.40;99.90;;;;;;4954207;28;20193;-84
2022/01/15 10:43:06;;;;;;;10.10;7.68;;;4.60;99.90;;;;;;4959010;28;20246;-85
2022/01/15 10:45:34;;;;;;;10.00;8.23;;;4.60;99.90;;;;;;4956006;28;20337;-83
2022/01/15 10:48:02;;;;;;;11.40;8.60;;;5.30;99.90;;;;;;4970905;28;20495;-81
2022/01/15 10:50:37;;;;;;;14.57;8.60;;;4.70;99.90;;;;;;4941974;28;20210;-83
2022/01/15 10:53:10;;;;;;;8.85;7.22;;;4.70;99.90;;;;;;4946698;28;20217;-84
2022/01/15 10:55:37;;;;;;;9.82;8.90;;;4.60;99.90;;;;;;4952802;28;20275;-81
2022/01/15 10:58:06;;;;;;;10.20;8.18;;;4.20;99.90;;;;;;4950897;28;20276;-81
2022/01/15 11:00:45;;;;;;;8.35;7.45;;;6.70;99.90;;;;;;4969666;28;20249;-85
2022/01/15 11:03:14;;;;;;;8.82;7.97;;;4.80;99.90;;;;;;4953115;28;20204;-85
2022/01/15 11:05:44;;;;;;;9.70;8.57;;;4.90;99.90;;;;;;4952290;28;20200;-84
2022/01/15 11:08:26;;;;;;;7.63;6.95;;;3.50;99.90;;;;;;4952124;28;20535;-85
2022/01/15 11:11:02;;;;;;;7.40;6.70;;;5.00;99.90;;;;;;4608023;28;9999625;-84
2022/01/15 11:13:30;;;;;;;8.60;7.70;;;5.10;99.90;;;;;;4966587;28;20671;-84
2022/01/15 11:16:01;;;;;;;7.97;7.22;;;4.70;99.90;;;;;;4950507;28;20194;-85
2022/01/15 11:18:30;;;;;;;6.97;6.38;;;4.90;99.90;;;;;;4968366;28;20733;-87
2022/01/15 11:21:02;;;;;;;8.13;7.38;;;5.00;99.90;;;;;;4952741;28;20532;-86
2022/01/15 11:23:29;;;;;;;9.00;8.20;;;5.10;99.90;;;;;;4968036;28;20269;-84
2022/01/15 11:25:58;;;;;;;8.70;7.72;;;5.10;99.90;;;;;;4954976;28;20205;-84
2022/01/15 11:28:26;;;;;;;8.65;7.85;;;5.20;99.90;;;;;;4968641;28;20194;-83
2022/01/15 11:30:58;;;;;;;8.25;7.30;;;4.60;99.90;;;;;;4952253;28;20221;-83
2022/01/15 11:33:30;;;;;;;8.63;7.80;;;5.20;99.90;;;;;;4967758;28;20190;-83
2022/01/15 11:35:56;;;;;;;10.70;9.07;;;4.90;99.90;;;;;;4946182;28;20349;-83
2022/01/15 11:38:40;;;;;;;8.43;7.70;;;5.10;99.90;;;;;;4970270;28;20194;-83
2022/01/15 11:41:26;;;;;;;7.97;7.20;;;5.30;99.90;;;;;;4964156;28;20208;-86
2022/01/15 11:43:53;;;;;;;9.95;8.95;;;4.70;99.90;;;;;;4952852;28;20548;-85
2022/01/15 11:46:26;;;;;;;12.82;8.05;;;6.40;99.90;;;;;;4953853;28;20684;-86
2022/01/15 11:49:25;;;;;;;10.27;9.20;;;5.60;99.90;;;;;;4946706;28;20198;-83
2022/01/15 11:51:52;;;;;;;10.88;9.55;;;5.30;99.90;;;;;;4969132;28;20217;-86
2022/01/15 11:54:17;;;;;;;11.55;10.35;;;5.00;99.90;;;;;;4957786;28;20189;-86
2022/01/15 11:56:43;;;;;;;10.70;9.17;;;5.30;99.90;;;;;;4969748;28;20200;-87
2022/01/15 11:59:46;;;;;;;8.35;7.22;;;5.40;99.90;;;;;;4973123;28;20620;-84
2022/01/15 12:02:33;;;;;;;9.82;8.35;;;6.40;99.90;;;;;;4973098;28;20693;-86
2022/01/15 12:05:17;;;;;;;9.43;8.52;;;6.60;99.90;;;;;;4964536;28;20217;-87
2022/01/15 12:08:02;;;;;;;11.25;9.73;;;4.80;99.90;;;;;;4954975;28;20203;-86
2022/01/15 12:11:02;;;;;;;10.18;8.38;;;5.40;99.90;;;;;;4936567;29;20217;-86
2022/01/15 12:13:42;;;;;;;8.75;7.95;;;7.00;99.90;;;;;;4966416;28;20539;-87
2022/01/15 12:16:29;;;;;;;12.45;10.05;;;5.60;99.90;;;;;;4950738;28;20268;-85
2022/01/15 12:19:00;;;;;;;10.80;9.00;;;5.80;99.90;;;;;;4967084;28;20229;-87
2022/01/15 12:22:03;;;;;;;10.65;9.05;;;5.90;99.90;;;;;;4961657;28;20179;-86
2022/01/15 12:24:40;;;;;;;9.82;8.90;;;7.00;99.90;;;;;;4952940;28;20670;-85
2022/01/15 12:27:10;;;;;;;10.00;9.00;;;5.50;99.90;;;;;;4951387;28;20289;-87
2022/01/15 12:29:37;;;;;;;12.70;9.30;;;6.30;99.90;;;;;;4954243;28;20261;-85
2022/01/15 12:32:03;;;;;;;10.73;8.77;;;7.10;99.90;;;;;;4987649;28;20217;-86
2022/01/15 12:34:29;;;;;;;9.27;8.27;;;5.60;99.90;;;;;;4950797;28;20191;-84
2022/01/15 12:36:58;;;;;;;10.00;8.73;;;8.60;99.90;;;;;;4952747;28;20441;-85
2022/01/15 12:39:32;;;;;;;10.45;9.35;;;5.10;99.90;;;;;;4952724;28;21141;-82
2022/01/15 12:42:02;;;;;;;12.20;9.18;;;7.50;99.90;;;;;;4956784;28;20220;-82
2022/01/15 12:44:27;;;;;;;10.85;9.77;;;5.70;99.90;;;;;;4970014;28;20225;-85
2022/01/15 12:46:55;;;;;;;9.60;8.60;;;5.70;99.90;;;;;;4943141;29;20226;-83
2022/01/15 12:49:21;;;;;;;10.10;8.80;;;6.60;99.90;;;;;;4949227;29;20194;-83
2022/01/15 12:51:47;;;;;;;14.03;10.37;;;;;;;;;;4959619;28;20664;-83
2022/01/15 12:54:12;;;;;;;12.18;9.35;;;5.60;99.90;;;;;;4950726;28;20181;-81
2022/01/15 12:56:39;;;;;;;12.40;10.00;;;4.20;99.90;;;;;;4962547;28;20312;-85
2022/01/15 12:59:05;;;;;;;10.00;9.05;;;5.40;99.90;;;;;;4970107;28;20200;-82
2022/01/15 13:01:31;;;;;;;8.80;7.97;;;5.30;99.90;;;;;;4966653;28;20201;-83
2022/01/15 13:03:57;;;;;;;10.65;9.55;;;5.20;99.90;;;;;;4966506;28;20190;-81
2022/01/15 13:06:25;;;;;;;10.80;9.70;;;5.90;99.90;;;;;;4942739;28;20216;-83
2022/01/15 13:08:53;;;;;;;10.65;8.98;;;6.30;99.90;;;;;;4969693;28;20447;-83
2022/01/15 13:11:21;;;;;;;12.68;10.05;;;5.90;99.90;;;;;;4947191;29;20692;-82